createdAt,value
2023-01-12T00:01:24.182Z,4.72
2023-01-12T00:03:51.233Z,4.62
2023-01-12T00:06:19.472Z,4.66
2023-01-12T00:08:49.073Z,4.67
2023-01-12T00:11:15.718Z,4.67
2023-01-12T00:13:42.180Z,4.66
2023-01-12T00:16:36.135Z,4.66
2023-01-12T00:19:19.633Z,4.61
2023-01-12T00:21:53.511Z,4.53
2023-01-12T00:24:20.187Z,4.42
2023-01-12T00:26:47.145Z,4.26
2023-01-12T00:29:14.402Z,4.16
2023-01-12T00:31:40.937Z,4.14
2023-01-12T00:34:07.500Z,4.13
2023-01-12T00:36:34.074Z,3.99
2023-01-12T00:39:00.601Z,3.72
2023-01-12T00:41:45.683Z,3.94
2023-01-12T00:44:30.682Z,3.49
2023-01-12T00:46:57.204Z,3.45
2023-01-12T00:49:23.709Z,3.75
2023-01-12T00:51:50.188Z,3.60
2023-01-12T00:54:16.675Z,3.32
2023-01-12T00:56:43.168Z,3.07
2023-01-12T00:59:09.658Z,2.86
2023-01-12T01:01:36.286Z,2.63
2023-01-12T01:04:02.860Z,2.56
2023-01-12T01:06:29.324Z,2.61
2023-01-12T01:08:55.832Z,2.60
2023-01-12T01:11:22.280Z,2.94
2023-01-12T01:13:49.135Z,3.11
2023-01-12T01:16:16.500Z,3.26
2023-01-12T01:18:43.153Z,3.34
2023-01-12T01:21:10.376Z,3.44
2023-01-12T01:23:37.549Z,3.46
2023-01-12T01:26:08.700Z,3.49
2023-01-12T01:28:36.820Z,3.52
2023-01-12T01:31:08.170Z,3.49
2023-01-12T01:33:34.696Z,3.44
2023-01-12T01:36:01.248Z,3.37
2023-01-12T01:38:27.807Z,3.29
2023-01-12T01:40:54.340Z,3.26
2023-01-12T01:43:21.755Z,3.22
2023-01-12T01:45:56.164Z,3.21
2023-01-12T01:48:22.647Z,3.24
2023-01-12T01:50:53.476Z,3.24
2023-01-12T01:53:21.822Z,3.20
2023-01-12T01:56:01.567Z,3.24
2023-01-12T01:58:41.419Z,3.22
2023-01-12T02:01:08.096Z,3.22
2023-01-12T02:03:36.937Z,3.29
2023-01-12T02:06:03.678Z,3.27
2023-01-12T02:08:35.135Z,3.31
2023-01-12T02:11:01.694Z,3.34
2023-01-12T02:13:48.858Z,3.27
2023-01-12T02:16:20.825Z,3.37
2023-01-12T02:18:50.008Z,3.38
2023-01-12T02:21:41.359Z,3.34
2023-01-12T02:24:19.953Z,3.32
2023-01-12T02:26:58.618Z,3.39
2023-01-12T02:29:46.685Z,3.38
2023-01-12T02:32:49.861Z,3.54
2023-01-12T02:35:28.470Z,3.53
2023-01-12T02:38:23.061Z,3.61
2023-01-12T02:41:00.287Z,3.81
2023-01-12T02:43:30.592Z,4.02
2023-01-12T02:46:14.353Z,4.13
2023-01-12T02:48:46.978Z,4.12
2023-01-12T02:51:27.076Z,4.20
2023-01-12T02:54:14.860Z,4.26
2023-01-12T02:56:47.979Z,4.19
2023-01-12T02:59:16.607Z,4.17
2023-01-12T03:01:43.220Z,4.16
2023-01-12T03:04:09.779Z,4.21
2023-01-12T03:06:42.682Z,4.23
2023-01-12T03:09:09.227Z,4.16
2023-01-12T03:11:36.166Z,4.20
2023-01-12T03:14:02.869Z,4.18
2023-01-12T03:16:31.876Z,4.19
2023-01-12T03:19:09.633Z,4.23
2023-01-12T03:21:37.491Z,4.20
2023-01-12T03:24:25.285Z,4.19
2023-01-12T03:26:53.440Z,4.21
2023-01-12T03:29:27.847Z,4.15
2023-01-12T03:31:54.485Z,4.08
2023-01-12T03:34:20.959Z,4.02
2023-01-12T03:37:03.472Z,3.88
2023-01-12T03:39:50.702Z,3.90
2023-01-12T03:42:20.140Z,3.89
2023-01-12T03:45:12.850Z,3.80
2023-01-12T03:47:39.330Z,3.75
2023-01-12T03:50:06.826Z,3.69
2023-01-12T03:52:35.116Z,3.64
2023-01-12T03:55:01.606Z,3.62
2023-01-12T03:57:28.156Z,3.54
2023-01-12T03:59:54.680Z,3.53
2023-01-12T04:02:21.982Z,3.51
2023-01-12T04:04:48.440Z,3.47
2023-01-12T04:07:14.905Z,3.37
2023-01-12T04:09:41.449Z,3.36
2023-01-12T04:12:11.095Z,3.37
2023-01-12T04:14:38.655Z,3.34
2023-01-12T04:17:05.673Z,3.28
2023-01-12T04:19:32.155Z,3.28
2023-01-12T04:22:17.293Z,3.29
2023-01-12T04:24:43.857Z,3.29
2023-01-12T04:27:10.624Z,3.28
2023-01-12T04:29:37.512Z,3.33
2023-01-12T04:32:04.868Z,3.29
2023-01-12T04:34:31.420Z,3.20
2023-01-12T04:36:58.083Z,3.20
2023-01-12T04:39:24.536Z,3.16
2023-01-12T04:41:50.989Z,3.10
2023-01-12T04:44:17.478Z,3.03
2023-01-12T04:46:43.946Z,3.04
2023-01-12T04:49:10.422Z,2.98
2023-01-12T04:51:36.916Z,2.96
2023-01-12T04:54:03.477Z,3.00
2023-01-12T04:56:30.805Z,2.98
2023-01-12T04:59:00.089Z,2.95
2023-01-12T05:01:27.968Z,2.94
2023-01-12T05:04:00.397Z,2.89
2023-01-12T05:06:27.447Z,2.89
2023-01-12T05:09:12.682Z,2.89
2023-01-12T05:11:39.273Z,2.92
2023-01-12T05:14:05.741Z,2.85
2023-01-12T05:16:32.332Z,2.80
2023-01-12T05:18:58.862Z,2.90
2023-01-12T05:21:25.375Z,2.83
2023-01-12T05:23:52.459Z,2.88
2023-01-12T05:26:19.018Z,2.85
2023-01-12T05:28:48.532Z,2.80
2023-01-12T05:31:15.117Z,2.75
2023-01-12T05:33:42.036Z,2.67
2023-01-12T05:36:13.184Z,2.75
2023-01-12T05:38:39.905Z,2.75
2023-01-12T05:41:15.497Z,2.75
2023-01-12T05:43:51.667Z,2.69
2023-01-12T05:46:26.321Z,2.48
2023-01-12T05:48:53.575Z,2.63
2023-01-12T05:51:20.132Z,2.58
2023-01-12T05:53:46.706Z,2.62
2023-01-12T05:56:23.347Z,2.75
2023-01-12T05:58:57.152Z,2.74
2023-01-12T06:01:23.743Z,2.71
2023-01-12T06:03:51.242Z,2.74
2023-01-12T06:06:18.873Z,2.72
2023-01-12T06:08:45.894Z,2.72
2023-01-12T06:11:32.476Z,2.71
2023-01-12T06:13:59.829Z,2.68
2023-01-12T06:16:27.599Z,2.63
2023-01-12T06:18:54.102Z,2.58
2023-01-12T06:21:20.664Z,2.55
2023-01-12T06:23:47.209Z,2.50
2023-01-12T06:26:13.726Z,2.42
2023-01-12T06:28:40.738Z,2.48
2023-01-12T06:31:08.183Z,2.58
2023-01-12T06:33:34.835Z,2.53
2023-01-12T06:36:01.674Z,2.54
2023-01-12T06:38:29.632Z,2.53
2023-01-12T06:40:58.927Z,2.64
2023-01-12T06:43:25.446Z,2.65
2023-01-12T06:45:54.992Z,2.68
2023-01-12T06:48:23.639Z,2.68
2023-01-12T06:50:50.163Z,2.70
2023-01-12T06:53:16.653Z,2.76
2023-01-12T06:55:49.224Z,2.71
2023-01-12T06:58:15.793Z,2.66
2023-01-12T07:00:42.272Z,2.67
2023-01-12T07:03:17.082Z,2.67
2023-01-12T07:05:43.674Z,2.72
2023-01-12T07:08:11.068Z,2.62
2023-01-12T07:10:37.830Z,2.55
2023-01-12T07:13:04.297Z,2.46
2023-01-12T07:15:30.804Z,2.48
2023-01-12T07:17:57.472Z,2.45
2023-01-12T07:20:24.366Z,2.55
2023-01-12T07:22:50.892Z,2.58
2023-01-12T07:25:17.424Z,2.63
2023-01-12T07:27:51.744Z,2.63
2023-01-12T07:30:20.296Z,2.70
2023-01-12T07:32:46.826Z,2.79
2023-01-12T07:35:13.417Z,2.82
2023-01-12T07:37:40.556Z,2.81
2023-01-12T07:40:07.529Z,2.92
2023-01-12T07:42:34.047Z,2.93
2023-01-12T07:45:00.605Z,3.00
2023-01-12T07:47:27.992Z,3.10
2023-01-12T07:49:54.462Z,3.23
2023-01-12T07:52:21.058Z,3.37
2023-01-12T07:54:47.718Z,3.38
2023-01-12T07:57:14.223Z,3.36
2023-01-12T07:59:40.769Z,3.36
2023-01-12T08:02:07.425Z,3.40
2023-01-12T08:04:34.077Z,3.43
2023-01-12T08:07:00.685Z,3.44
2023-01-12T08:09:27.882Z,3.50
2023-01-12T08:11:54.394Z,3.57
2023-01-12T08:14:27.706Z,3.66
2023-01-12T08:16:56.374Z,3.71
2023-01-12T08:19:24.973Z,3.77
2023-01-12T08:21:57.133Z,3.84
2023-01-12T08:24:24.926Z,3.90
2023-01-12T08:26:52.065Z,3.96
2023-01-12T08:29:23.274Z,4.02
2023-01-12T08:31:49.730Z,4.07
2023-01-12T08:34:16.219Z,4.14
2023-01-12T08:36:44.300Z,4.24
2023-01-12T08:39:11.187Z,4.23
2023-01-12T08:41:37.696Z,4.32
2023-01-12T08:44:09.181Z,4.42
2023-01-12T08:46:39.913Z,4.59
2023-01-12T08:49:11.386Z,4.69
2023-01-12T08:51:39.545Z,4.78
2023-01-12T08:54:07.034Z,4.82
2023-01-12T08:56:33.773Z,4.91
2023-01-12T08:59:00.661Z,5.02
2023-01-12T09:01:27.407Z,5.07
2023-01-12T09:03:55.468Z,5.11
2023-01-12T09:06:25.896Z,5.10
2023-01-12T09:08:56.560Z,5.02
2023-01-12T09:11:23.333Z,5.14
2023-01-12T09:13:49.895Z,5.23
2023-01-12T09:16:17.327Z,5.27
2023-01-12T09:18:43.927Z,5.33
2023-01-12T09:21:11.846Z,5.35
2023-01-12T09:23:38.527Z,5.39
2023-01-12T09:26:15.098Z,5.49
2023-01-12T09:28:41.703Z,5.56
2023-01-12T09:31:09.622Z,5.64
2023-01-12T09:33:36.875Z,5.67
2023-01-12T09:36:04.444Z,5.75
2023-01-12T09:38:31.067Z,5.86
2023-01-12T09:41:02.462Z,5.90
2023-01-12T09:43:47.704Z,5.86
2023-01-12T09:46:46.613Z,5.91
2023-01-12T09:49:13.607Z,5.83
2023-01-12T09:51:45.224Z,5.96
2023-01-12T09:54:11.707Z,5.95
2023-01-12T09:56:43.287Z,6.05
2023-01-12T09:59:24.603Z,6.06
2023-01-12T10:01:52.091Z,6.11
2023-01-12T10:04:18.711Z,6.17
2023-01-12T10:06:45.292Z,6.32
2023-01-12T10:09:14.940Z,6.34
2023-01-12T10:11:53.523Z,6.44
2023-01-12T10:14:37.975Z,6.57
2023-01-12T10:17:38.595Z,6.62
2023-01-12T10:20:08.543Z,6.77
2023-01-12T10:22:47.523Z,6.88
2023-01-12T10:25:29.248Z,6.99
2023-01-12T10:27:57.768Z,6.98
2023-01-12T10:30:32.009Z,6.93
2023-01-12T10:33:13.641Z,7.02
2023-01-12T10:35:56.139Z,7.07
2023-01-12T10:38:51.788Z,7.08
2023-01-12T10:41:19.787Z,7.17
2023-01-12T10:44:13.761Z,7.14
2023-01-12T10:46:40.294Z,7.18
2023-01-12T10:49:23.236Z,7.16
2023-01-12T10:51:49.584Z,7.23
2023-01-12T10:54:17.718Z,7.19
2023-01-12T10:56:53.575Z,7.16
2023-01-12T10:59:21.932Z,7.20
2023-01-12T11:02:11.881Z,7.06
2023-01-12T11:04:48.866Z,6.99
2023-01-12T11:07:22.779Z,7.03
2023-01-12T11:09:49.302Z,7.03
2023-01-12T11:12:19.817Z,6.95
2023-01-12T11:15:17.177Z,7.01
2023-01-12T11:17:56.401Z,7.01
2023-01-12T11:20:49.344Z,7.07
2023-01-12T11:23:24.235Z,7.00
2023-01-12T11:25:51.213Z,6.86
2023-01-12T11:28:29.234Z,6.86
2023-01-12T11:31:01.964Z,6.89
2023-01-12T11:33:29.883Z,6.88
2023-01-12T11:36:02.649Z,6.82
2023-01-12T11:38:33.837Z,6.93
2023-01-12T11:41:00.334Z,6.93
2023-01-12T11:43:55.506Z,6.97
2023-01-12T11:46:30.135Z,7.01
2023-01-12T11:49:21.248Z,7.09
2023-01-12T11:51:48.807Z,7.23
2023-01-12T11:54:16.645Z,7.41
2023-01-12T11:56:55.769Z,7.57
2023-01-12T11:59:41.639Z,7.80
2023-01-12T12:02:26.517Z,7.78
2023-01-12T12:04:52.917Z,7.87
2023-01-12T12:07:23.817Z,7.75
2023-01-12T12:10:21.253Z,7.99
2023-01-12T12:13:18.499Z,7.90
2023-01-12T12:16:03.465Z,7.82
2023-01-12T12:18:32.897Z,7.59
2023-01-12T12:21:25.354Z,7.49
2023-01-12T12:24:00.881Z,7.25
2023-01-12T12:26:41.891Z,7.14
2023-01-12T12:29:43.639Z,7.01
2023-01-12T12:32:27.022Z,6.88
2023-01-12T12:35:24.460Z,6.76
2023-01-12T12:38:11.996Z,6.58
2023-01-12T12:41:27.925Z,6.49
2023-01-12T12:44:35.001Z,6.44
2023-01-12T12:47:20.541Z,6.37
2023-01-12T12:49:47.099Z,6.35
2023-01-12T12:52:13.668Z,6.32
2023-01-12T12:54:40.243Z,6.22
2023-01-12T12:57:07.169Z,6.22
2023-01-12T12:59:33.912Z,6.25
2023-01-12T13:02:01.272Z,6.19
2023-01-12T13:04:42.832Z,6.29
2023-01-12T13:07:14.960Z,6.33
2023-01-12T13:09:41.653Z,6.36
2023-01-12T13:12:08.067Z,6.52
2023-01-12T13:14:38.835Z,6.56
2023-01-12T13:17:20.395Z,6.63
2023-01-12T13:20:08.210Z,6.67
2023-01-12T13:22:40.052Z,6.83
2023-01-12T13:25:15.911Z,6.88
2023-01-12T13:28:00.836Z,7.04
2023-01-12T13:30:30.222Z,7.13
2023-01-12T13:33:15.655Z,7.17
2023-01-12T13:35:44.915Z,7.18
2023-01-12T13:38:39.409Z,7.23
2023-01-12T13:41:05.847Z,7.24
2023-01-12T13:43:34.581Z,7.30
2023-01-12T13:46:03.628Z,7.41
2023-01-12T13:48:31.180Z,7.45
2023-01-12T13:51:18.531Z,7.51
2023-01-12T13:53:47.817Z,7.64
2023-01-12T13:56:19.772Z,7.67
2023-01-12T13:58:46.578Z,7.79
2023-01-12T14:01:18.282Z,7.67
2023-01-12T14:04:08.698Z,7.67
2023-01-12T14:06:53.399Z,7.61
2023-01-12T14:09:47.939Z,7.49
2023-01-12T14:12:45.268Z,7.54
2023-01-12T14:15:46.249Z,7.48
2023-01-12T14:18:17.214Z,7.48
2023-01-12T14:20:46.407Z,7.40
2023-01-12T14:23:14.399Z,7.37
2023-01-12T14:25:41.343Z,7.33
2023-01-12T14:28:21.819Z,7.45
2023-01-12T14:30:52.708Z,7.34
2023-01-12T14:33:23.946Z,7.27
2023-01-12T14:35:54.752Z,7.25
2023-01-12T14:38:22.322Z,7.10
2023-01-12T14:40:59.628Z,7.17
2023-01-12T14:43:44.962Z,7.21
2023-01-12T14:46:41.448Z,7.25
2023-01-12T14:49:21.596Z,7.11
2023-01-12T14:51:52.787Z,7.19
2023-01-12T14:54:19.826Z,7.15
2023-01-12T14:56:59.181Z,7.16
2023-01-12T14:59:30.722Z,7.06
2023-01-12T15:02:17.711Z,7.03
2023-01-12T15:04:58.599Z,7.01
2023-01-12T15:07:26.947Z,7.00
2023-01-12T15:09:56.037Z,6.98
2023-01-12T15:12:28.412Z,6.92
2023-01-12T15:15:15.382Z,6.86
2023-01-12T15:18:00.648Z,6.85
2023-01-12T15:20:46.790Z,6.91
2023-01-12T15:23:31.914Z,6.86
2023-01-12T15:25:58.432Z,6.81
2023-01-12T15:28:24.917Z,6.83
2023-01-12T15:30:52.915Z,6.81
2023-01-12T15:33:20.603Z,6.92
2023-01-12T15:35:47.297Z,6.92
2023-01-12T15:38:14.295Z,6.87
2023-01-12T15:40:40.769Z,6.88
2023-01-12T15:43:13.066Z,6.86
2023-01-12T15:45:41.008Z,6.99
2023-01-12T15:48:08.428Z,7.11
2023-01-12T15:50:36.713Z,7.06
2023-01-12T15:53:03.335Z,7.07
2023-01-12T15:55:35.815Z,6.96
2023-01-12T15:58:02.417Z,7.08
2023-01-12T16:00:29.017Z,7.15
2023-01-12T16:02:55.522Z,7.06
2023-01-12T16:05:23.083Z,7.09
2023-01-12T16:07:49.957Z,7.11
2023-01-12T16:10:16.875Z,7.19
2023-01-12T16:12:44.162Z,7.06
2023-01-12T16:15:23.950Z,7.05
2023-01-12T16:17:50.745Z,7.18
2023-01-12T16:20:18.733Z,7.13
2023-01-12T16:22:45.633Z,7.09
2023-01-12T16:25:12.452Z,7.13
2023-01-12T16:27:39.015Z,7.13
2023-01-12T16:30:06.902Z,7.07
2023-01-12T16:32:33.422Z,7.16
2023-01-12T16:34:59.969Z,7.10
2023-01-12T16:37:29.892Z,7.07
2023-01-12T16:39:56.465Z,7.07
2023-01-12T16:42:23.152Z,7.10
2023-01-12T16:44:50.120Z,6.99
2023-01-12T16:47:18.710Z,6.97
2023-01-12T16:49:48.199Z,6.93
2023-01-12T16:52:15.813Z,6.96
2023-01-12T16:54:42.823Z,6.97
2023-01-12T16:57:10.513Z,7.01
2023-01-12T16:59:37.086Z,7.05
2023-01-12T17:02:07.777Z,7.04
2023-01-12T17:04:35.774Z,6.92
2023-01-12T17:07:02.803Z,6.96
2023-01-12T17:09:29.333Z,6.95
2023-01-12T17:11:55.969Z,6.88
2023-01-12T17:14:27.211Z,6.77
2023-01-12T17:16:56.393Z,6.76
2023-01-12T17:19:24.270Z,6.74
2023-01-12T17:21:51.125Z,6.67
2023-01-12T17:24:19.736Z,6.69
2023-01-12T17:26:49.405Z,6.63
2023-01-12T17:29:15.973Z,6.70
2023-01-12T17:31:42.562Z,6.71
2023-01-12T17:34:11.756Z,6.68
2023-01-12T17:36:38.639Z,6.77
2023-01-12T17:39:05.174Z,6.91
2023-01-12T17:41:49.990Z,6.87
2023-01-12T17:44:16.668Z,6.89
2023-01-12T17:46:43.512Z,6.83
2023-01-12T17:49:10.387Z,6.83
2023-01-12T17:51:37.167Z,6.89
2023-01-12T17:54:05.175Z,6.90
2023-01-12T17:56:33.865Z,6.92
2023-01-12T17:59:00.407Z,6.86
2023-01-12T18:01:29.184Z,6.82
2023-01-12T18:03:55.953Z,6.76
2023-01-12T18:06:29.417Z,6.80
2023-01-12T18:08:56.772Z,6.70
2023-01-12T18:11:23.376Z,6.60
2023-01-12T18:13:49.961Z,6.62
2023-01-12T18:16:16.645Z,6.65
2023-01-12T18:18:44.046Z,6.57
2023-01-12T18:21:12.012Z,6.59
2023-01-12T18:23:38.821Z,6.64
2023-01-12T18:26:06.458Z,6.68
2023-01-12T18:28:33.128Z,6.68
2023-01-12T18:31:13.794Z,6.61
2023-01-12T18:33:40.431Z,6.59
2023-01-12T18:36:11.308Z,6.60
2023-01-12T18:38:44.106Z,6.74
2023-01-12T18:41:29.063Z,6.78
2023-01-12T18:43:55.715Z,6.59
2023-01-12T18:46:42.195Z,6.62
2023-01-12T18:49:08.867Z,6.57
2023-01-12T18:52:01.141Z,6.57
2023-01-12T18:54:27.639Z,6.56
2023-01-12T18:56:54.127Z,6.55
2023-01-12T18:59:21.549Z,6.56
2023-01-12T19:01:48.244Z,6.56
2023-01-12T19:04:15.722Z,6.44
2023-01-12T19:06:44.501Z,6.39
2023-01-12T19:09:32.870Z,6.37
2023-01-12T19:11:59.454Z,6.30
2023-01-12T19:14:45.203Z,6.39
2023-01-12T19:17:27.065Z,6.42
2023-01-12T19:19:57.596Z,6.35
2023-01-12T19:22:42.890Z,6.39
2023-01-12T19:25:35.687Z,6.42
2023-01-12T19:28:21.171Z,6.40
2023-01-12T19:30:47.743Z,6.40
2023-01-12T19:33:14.788Z,6.44
2023-01-12T19:35:45.111Z,6.39
2023-01-12T19:38:12.644Z,6.34
2023-01-12T19:40:49.908Z,6.31
2023-01-12T19:43:21.080Z,6.13
2023-01-12T19:45:50.731Z,6.32
2023-01-12T19:48:18.141Z,6.30
2023-01-12T19:50:44.982Z,6.24
2023-01-12T19:53:13.072Z,6.20
2023-01-12T19:55:39.860Z,6.20
2023-01-12T19:58:08.793Z,6.21
2023-01-12T20:00:37.667Z,6.19
2023-01-12T20:03:04.286Z,6.16
2023-01-12T20:05:30.938Z,6.20
2023-01-12T20:07:57.413Z,6.26
2023-01-12T20:10:24.012Z,6.24
2023-01-12T20:12:52.339Z,6.24
2023-01-12T20:15:20.596Z,6.22
2023-01-12T20:17:48.300Z,6.14
2023-01-12T20:20:14.993Z,6.10
2023-01-12T20:22:41.684Z,6.07
2023-01-12T20:25:08.539Z,6.06
2023-01-12T20:27:35.654Z,5.96
2023-01-12T20:30:02.480Z,5.91
2023-01-12T20:32:31.548Z,5.88
2023-01-12T20:35:07.524Z,5.69
2023-01-12T20:37:34.028Z,5.91
2023-01-12T20:40:00.609Z,5.90
2023-01-12T20:42:29.267Z,5.88
2023-01-12T20:44:55.847Z,5.86
2023-01-12T20:47:22.350Z,5.91
2023-01-12T20:49:48.843Z,5.92
2023-01-12T20:52:15.293Z,5.87
2023-01-12T20:54:41.929Z,5.88
2023-01-12T20:57:10.178Z,5.85
2023-01-12T20:59:37.531Z,5.73
2023-01-12T21:02:04.569Z,5.66
2023-01-12T21:04:31.989Z,5.52
2023-01-12T21:06:58.648Z,5.30
2023-01-12T21:09:25.342Z,5.33
2023-01-12T21:11:52.114Z,5.34
2023-01-12T21:14:23.244Z,4.85
2023-01-12T21:16:49.815Z,4.89
2023-01-12T21:19:17.070Z,4.83
2023-01-12T21:21:43.579Z,4.64
2023-01-12T21:24:10.589Z,4.58
2023-01-12T21:26:37.428Z,4.47
2023-01-12T21:29:03.959Z,4.53
2023-01-12T21:31:30.575Z,4.51
2023-01-12T21:33:57.190Z,4.81
2023-01-12T21:36:23.786Z,4.72
2023-01-12T21:38:53.457Z,4.83
2023-01-12T21:41:21.563Z,4.76
2023-01-12T21:43:49.384Z,4.84
2023-01-12T21:46:15.909Z,4.73
2023-01-12T21:48:42.453Z,5.01
2023-01-12T21:51:13.849Z,5.19
2023-01-12T21:53:41.900Z,5.11
2023-01-12T21:56:09.902Z,5.17
2023-01-12T21:58:36.526Z,5.31
2023-01-12T22:01:10.591Z,5.43
2023-01-12T22:03:37.235Z,5.48
2023-01-12T22:06:07.486Z,5.52
2023-01-12T22:08:38.104Z,5.57
2023-01-12T22:11:08.679Z,5.74
2023-01-12T22:13:35.437Z,5.68
2023-01-12T22:16:06.152Z,5.67
2023-01-12T22:18:32.837Z,5.75
2023-01-12T22:21:03.359Z,5.81
2023-01-12T22:23:29.913Z,5.74
2023-01-12T22:26:00.704Z,5.59
2023-01-12T22:28:27.196Z,5.57
2023-01-12T22:30:54.052Z,5.58
2023-01-12T22:33:20.527Z,5.64
2023-01-12T22:35:47.694Z,5.58
2023-01-12T22:38:14.207Z,5.68
2023-01-12T22:40:40.763Z,5.67
2023-01-12T22:43:26.679Z,5.57
2023-01-12T22:45:57.887Z,5.57
2023-01-12T22:48:25.553Z,5.53
2023-01-12T22:50:54.476Z,5.55
2023-01-12T22:53:22.276Z,5.64
2023-01-12T22:55:48.799Z,5.65
2023-01-12T22:58:15.535Z,5.72
2023-01-12T23:00:43.811Z,5.69
2023-01-12T23:03:10.558Z,5.70
2023-01-12T23:05:45.892Z,5.83
2023-01-12T23:08:13.144Z,5.83
2023-01-12T23:10:39.891Z,5.93
2023-01-12T23:13:15.876Z,5.91
2023-01-12T23:15:46.694Z,5.86
2023-01-12T23:18:15.324Z,5.98
2023-01-12T23:20:42.650Z,5.95
2023-01-12T23:23:09.426Z,5.98
2023-01-12T23:25:36.012Z,6.07
2023-01-12T23:28:02.689Z,6.05
2023-01-12T23:30:32.293Z,6.04
2023-01-12T23:32:59.624Z,6.10
2023-01-12T23:35:26.974Z,6.10
2023-01-12T23:37:53.522Z,6.12
2023-01-12T23:40:19.990Z,6.13
2023-01-12T23:42:46.474Z,6.10
2023-01-12T23:45:12.963Z,6.12
2023-01-12T23:47:40.583Z,6.15
2023-01-12T23:50:07.495Z,6.08
2023-01-12T23:52:33.965Z,6.12
2023-01-12T23:55:00.510Z,6.08
2023-01-12T23:57:28.751Z,5.98
2023-01-12T23:59:55.407Z,5.84
